KMEI/MEI METAR and TAF weather

Enter ICAO airport designator
Station Type Date Time Source
KMEI METAR 2022/11/30 11:06 UTC NOAA

KMEI 301106Z AUTO 33004KT 10SM FEW016 19/17 A2998 RMK AO2 I1000 T01890172


Station Type Date Time Source
KMEI Decoded METAR 2022/11/30 11:06 UTC NOAA

MERIDIAN KEY FIELD, MS, United States (KMEI) 32-20N 088-45W 89M
Nov 30, 2022 - 06:06 AM EST / 2022.11.30 1106 UTC
Wind: from the NNW (330 degrees) at 5 MPH (4 KT):0
Visibility: 10 mile(s):0
Sky conditions: mostly clear
Temperature: 66.0 F (18.9 C)
Dew Point: 63.0 F (17.2 C)
Relative Humidity: 89%
Pressure (altimeter): 29.98 in. Hg (1015 hPa)
ob: KMEI 301106Z AUTO 33004KT 10SM FEW016 19/17 A2998 RMK AO2 I1000 T01890172
cycle: 11

Station Type Date Time Source
KMEI TAF 2022/11/30 06:46 UTC NOAA

TAF KMEI 300544Z 3006/0106 19011KT P6SM BKN019 OVC025
FM301000 27009KT 6SM +TSRA BR BKN022CB WS020/30045KT
FM301100 31009KT P6SM VCTS BKN015CB
FM302200 01011KT P6SM SKC

Example: see airport list